sensor_id;sensor_type;location;lat;lon;timestamp;pressure;altitude;pressure_sealevel;temperature;humidity
7662;BME280;30314;48.184;11.510;2023-07-28T00:00:36;95381.78;;;15.30;100.00
7662;BME280;30314;48.184;11.510;2023-07-28T00:03:03;95332.47;;;14.99;100.00
7662;BME280;30314;48.184;11.510;2023-07-28T00:05:30;95346.44;;;15.08;100.00
7662;BME280;30314;48.184;11.510;2023-07-28T00:07:56;95363.22;;;15.21;100.00
7662;BME280;30314;48.184;11.510;2023-07-28T00:10:23;95353.44;;;15.13;100.00
7662;BME280;30314;48.184;11.510;2023-07-28T00:12:49;95355.53;;;15.07;100.00
7662;BME280;30314;48.184;11.510;2023-07-28T00:15:16;95351.31;;;15.06;100.00
7662;BME280;30314;48.184;11.510;2023-07-28T00:17:42;95348.53;;;15.03;100.00
7662;BME280;30314;48.184;11.510;2023-07-28T00:20:10;95332.91;;;15.01;100.00
7662;BME280;30314;48.184;11.510;2023-07-28T00:22:37;95327.91;;;15.00;100.00
7662;BME280;30314;48.184;11.510;2023-07-28T00:25:03;95330.47;;;15.08;100.00
7662;BME280;30314;48.184;11.510;2023-07-28T00:27:30;95298.00;;;14.90;100.00
7662;BME280;30314;48.184;11.510;2023-07-28T00:29:57;95328.84;;;15.16;100.00
7662;BME280;30314;48.184;11.510;2023-07-28T00:32:23;95309.56;;;15.07;100.00
7662;BME280;30314;48.184;11.510;2023-07-28T00:34:50;95325.34;;;15.25;100.00
7662;BME280;30314;48.184;11.510;2023-07-28T00:37:17;95315.34;;;15.21;100.00
7662;BME280;30314;48.184;11.510;2023-07-28T00:39:43;95314.94;;;15.32;100.00
7662;BME280;30314;48.184;11.510;2023-07-28T00:42:10;95317.81;;;15.39;100.00
7662;BME280;30314;48.184;11.510;2023-07-28T00:44:36;95296.41;;;15.35;100.00
7662;BME280;30314;48.184;11.510;2023-07-28T00:47:03;95331.44;;;15.59;100.00
7662;BME280;30314;48.184;11.510;2023-07-28T00:49:30;95335.22;;;15.70;100.00
7662;BME280;30314;48.184;11.510;2023-07-28T00:56:22;95326.78;;;15.81;100.00
7662;BME280;30314;48.184;11.510;2023-07-28T00:58:49;95325.03;;;15.72;100.00
7662;BME280;30314;48.184;11.510;2023-07-28T01:01:16;95343.56;;;15.94;100.00
7662;BME280;30314;48.184;11.510;2023-07-28T01:03:43;95321.00;;;15.78;100.00
7662;BME280;30314;48.184;11.510;2023-07-28T01:06:13;95346.34;;;15.97;100.00
7662;BME280;30314;48.184;11.510;2023-07-28T01:08:47;95341.66;;;15.94;100.00
7662;BME280;30314;48.184;11.510;2023-07-28T01:11:16;95333.22;;;15.80;100.00
7662;BME280;30314;48.184;11.510;2023-07-28T01:13:42;95346.53;;;15.80;100.00
7662;BME280;30314;48.184;11.510;2023-07-28T01:16:09;95349.31;;;15.83;100.00
7662;BME280;30314;48.184;11.510;2023-07-28T01:18:36;95346.75;;;15.74;100.00
7662;BME280;30314;48.184;11.510;2023-07-28T01:21:05;95346.94;;;15.69;100.00
7662;BME280;30314;48.184;11.510;2023-07-28T01:26:05;95314.06;;;15.40;100.00
7662;BME280;30314;48.184;11.510;2023-07-28T01:28:36;95338.63;;;15.58;100.00
7662;BME280;30314;48.184;11.510;2023-07-28T01:31:04;95337.19;;;15.48;100.00
7662;BME280;30314;48.184;11.510;2023-07-28T01:33:32;95343.03;;;15.42;100.00
7662;BME280;30314;48.184;11.510;2023-07-28T01:35:59;95346.66;;;15.37;100.00
7662;BME280;30314;48.184;11.510;2023-07-28T01:38:27;95335.00;;;15.29;100.00
7662;BME280;30314;48.184;11.510;2023-07-28T01:40:54;95330.97;;;15.23;100.00
7662;BME280;30314;48.184;11.510;2023-07-28T01:43:21;95347.50;;;15.29;100.00
7662;BME280;30314;48.184;11.510;2023-07-28T01:45:47;95346.16;;;15.22;100.00
7662;BME280;30314;48.184;11.510;2023-07-28T01:48:14;95323.03;;;15.02;100.00
7662;BME280;30314;48.184;11.510;2023-07-28T01:50:41;95328.16;;;15.07;100.00
7662;BME280;30314;48.184;11.510;2023-07-28T01:53:08;95339.47;;;15.16;100.00
7662;BME280;30314;48.184;11.510;2023-07-28T01:55:35;95326.63;;;15.06;100.00
7662;BME280;30314;48.184;11.510;2023-07-28T01:58:02;95335.34;;;15.06;100.00
7662;BME280;30314;48.184;11.510;2023-07-28T02:00:29;95338.19;;;15.22;100.00
7662;BME280;30314;48.184;11.510;2023-07-28T02:02:56;95326.00;;;15.21;100.00
7662;BME280;30314;48.184;11.510;2023-07-28T02:05:24;95320.00;;;15.25;100.00
7662;BME280;30314;48.184;11.510;2023-07-28T02:07:51;95348.66;;;15.40;100.00
7662;BME280;30314;48.184;11.510;2023-07-28T02:10:18;95301.75;;;15.02;100.00
7662;BME280;30314;48.184;11.510;2023-07-28T02:12:45;95337.31;;;15.18;100.00
7662;BME280;30314;48.184;11.510;2023-07-28T02:15:11;95283.66;;;14.83;100.00
7662;BME280;30314;48.184;11.510;2023-07-28T02:17:39;95293.66;;;14.86;100.00
7662;BME280;30314;48.184;11.510;2023-07-28T02:20:06;95305.69;;;14.83;100.00
7662;BME280;30314;48.184;11.510;2023-07-28T02:22:33;95341.03;;;15.05;100.00
7662;BME280;30314;48.184;11.510;2023-07-28T02:25:00;95341.78;;;15.05;100.00
7662;BME280;30314;48.184;11.510;2023-07-28T02:27:28;95336.53;;;14.97;100.00
7662;BME280;30314;48.184;11.510;2023-07-28T02:29:55;95341.41;;;14.94;100.00
7662;BME280;30314;48.184;11.510;2023-07-28T02:32:21;95300.66;;;14.69;100.00
7662;BME280;30314;48.184;11.510;2023-07-28T02:34:49;95287.63;;;14.55;100.00
7662;BME280;30314;48.184;11.510;2023-07-28T02:37:15;95335.53;;;14.89;100.00
7662;BME280;30314;48.184;11.510;2023-07-28T02:39:42;95334.94;;;14.83;100.00
7662;BME280;30314;48.184;11.510;2023-07-28T02:42:09;95337.38;;;14.88;100.00
7662;BME280;30314;48.184;11.510;2023-07-28T02:44:36;95318.16;;;14.70;100.00
7662;BME280;30314;48.184;11.510;2023-07-28T02:47:02;95296.97;;;14.61;100.00
7662;BME280;30314;48.184;11.510;2023-07-28T02:49:29;95304.03;;;14.57;100.00
7662;BME280;30314;48.184;11.510;2023-07-28T02:51:56;95325.81;;;14.72;100.00
7662;BME280;30314;48.184;11.510;2023-07-28T02:54:22;95283.03;;;14.43;100.00
7662;BME280;30314;48.184;11.510;2023-07-28T02:56:52;95336.69;;;14.79;100.00
7662;BME280;30314;48.184;11.510;2023-07-28T02:59:19;95347.34;;;14.79;100.00
7662;BME280;30314;48.184;11.510;2023-07-28T03:01:45;95297.03;;;14.52;100.00
7662;BME280;30314;48.184;11.510;2023-07-28T03:04:12;95328.31;;;14.68;100.00
7662;BME280;30314;48.184;11.510;2023-07-28T03:07:02;95329.88;;;14.69;100.00
7662;BME280;30314;48.184;11.510;2023-07-28T03:09:29;95311.94;;;14.66;100.00
7662;BME280;30314;48.184;11.510;2023-07-28T03:11:59;95316.94;;;14.68;100.00
7662;BME280;30314;48.184;11.510;2023-07-28T03:14:26;95292.56;;;14.44;100.00
7662;BME280;30314;48.184;11.510;2023-07-28T03:16:55;95281.22;;;14.35;100.00
7662;BME280;30314;48.184;11.510;2023-07-28T03:19:21;95325.44;;;14.61;100.00
7662;BME280;30314;48.184;11.510;2023-07-28T03:21:48;95273.63;;;14.46;100.00
7662;BME280;30314;48.184;11.510;2023-07-28T03:24:15;95329.34;;;14.76;100.00
7662;BME280;30314;48.184;11.510;2023-07-28T03:26:42;95335.91;;;14.78;100.00
7662;BME280;30314;48.184;11.510;2023-07-28T03:29:09;95340.19;;;14.71;100.00
7662;BME280;30314;48.184;11.510;2023-07-28T03:31:35;95332.81;;;14.76;100.00
7662;BME280;30314;48.184;11.510;2023-07-28T03:34:04;95328.81;;;14.70;100.00
7662;BME280;30314;48.184;11.510;2023-07-28T03:36:31;95335.47;;;14.76;100.00
7662;BME280;30314;48.184;11.510;2023-07-28T03:38:59;95321.00;;;14.65;100.00
7662;BME280;30314;48.184;11.510;2023-07-28T03:41:26;95308.91;;;14.55;100.00
7662;BME280;30314;48.184;11.510;2023-07-28T03:43:53;95308.63;;;14.48;100.00
7662;BME280;30314;48.184;11.510;2023-07-28T03:46:21;95299.88;;;14.47;100.00
7662;BME280;30314;48.184;11.510;2023-07-28T03:48:48;95279.84;;;14.29;100.00
7662;BME280;30314;48.184;11.510;2023-07-28T03:51:15;95320.03;;;14.48;100.00
7662;BME280;30314;48.184;11.510;2023-07-28T03:53:42;95299.03;;;14.34;100.00
7662;BME280;30314;48.184;11.510;2023-07-28T03:56:08;95338.25;;;14.59;100.00
7662;BME280;30314;48.184;11.510;2023-07-28T03:58:35;95322.56;;;14.45;100.00
7662;BME280;30314;48.184;11.510;2023-07-28T04:01:01;95325.00;;;14.50;100.00
7662;BME280;30314;48.184;11.510;2023-07-28T04:03:28;95342.91;;;14.62;100.00
7662;BME280;30314;48.184;11.510;2023-07-28T04:05:55;95339.28;;;14.67;100.00
7662;BME280;30314;48.184;11.510;2023-07-28T04:08:21;95325.34;;;14.70;100.00
7662;BME280;30314;48.184;11.510;2023-07-28T04:10:48;95319.31;;;14.60;100.00
7662;BME280;30314;48.184;11.510;2023-07-28T04:13:15;95336.44;;;14.72;100.00
7662;BME280;30314;48.184;11.510;2023-07-28T04:15:41;95327.50;;;14.55;100.00
7662;BME280;30314;48.184;11.510;2023-07-28T04:18:08;95324.38;;;14.53;100.00
7662;BME280;30314;48.184;11.510;2023-07-28T04:20:35;95268.78;;;14.27;100.00
7662;BME280;30314;48.184;11.510;2023-07-28T04:23:01;95332.53;;;14.69;100.00
7662;BME280;30314;48.184;11.510;2023-07-28T04:25:33;95287.81;;;14.50;100.00
7662;BME280;30314;48.184;11.510;2023-07-28T04:27:59;95316.94;;;14.68;100.00
7662;BME280;30314;48.184;11.510;2023-07-28T04:30:26;95314.66;;;14.78;100.00
7662;BME280;30314;48.184;11.510;2023-07-28T04:32:53;95292.56;;;14.65;100.00
7662;BME280;30314;48.184;11.510;2023-07-28T04:35:25;95265.00;;;14.49;100.00
7662;BME280;30314;48.184;11.510;2023-07-28T04:38:01;95278.56;;;14.56;100.00
7662;BME280;30314;48.184;11.510;2023-07-28T04:40:49;95353.31;;;15.10;100.00
7662;BME280;30314;48.184;11.510;2023-07-28T04:43:21;95347.53;;;15.07;100.00
7662;BME280;30314;48.184;11.510;2023-07-28T04:45:52;95350.78;;;15.13;100.00
7662;BME280;30314;48.184;11.510;2023-07-28T04:48:21;95350.78;;;15.13;100.00
7662;BME280;30314;48.184;11.510;2023-07-28T04:50:48;95311.28;;;14.90;100.00
7662;BME280;30314;48.184;11.510;2023-07-28T04:53:47;95345.47;;;15.13;100.00
7662;BME280;30314;48.184;11.510;2023-07-28T04:56:20;95346.91;;;15.11;100.00
7662;BME280;30314;48.184;11.510;2023-07-28T04:58:47;95354.38;;;15.17;100.00
7662;BME280;30314;48.184;11.510;2023-07-28T05:01:13;95362.44;;;15.21;100.00
7662;BME280;30314;48.184;11.510;2023-07-28T05:03:44;95320.47;;;14.93;100.00
7662;BME280;30314;48.184;11.510;2023-07-28T05:06:21;95364.47;;;15.24;100.00
7662;BME280;30314;48.184;11.510;2023-07-28T05:08:48;95365.56;;;15.23;100.00
7662;BME280;30314;48.184;11.510;2023-07-28T05:11:20;95375.25;;;15.40;100.00
7662;BME280;30314;48.184;11.510;2023-07-28T05:13:47;95369.31;;;15.43;100.00
7662;BME280;30314;48.184;11.510;2023-07-28T05:16:14;95327.09;;;15.20;100.00
7662;BME280;30314;48.184;11.510;2023-07-28T05:19:07;95357.09;;;15.42;100.00
7662;BME280;30314;48.184;11.510;2023-07-28T05:22:12;95369.00;;;15.57;100.00
7662;BME280;30314;48.184;11.510;2023-07-28T05:24:46;95338.00;;;15.40;100.00
7662;BME280;30314;48.184;11.510;2023-07-28T05:27:13;95354.03;;;15.53;100.00
7662;BME280;30314;48.184;11.510;2023-07-28T05:29:43;95364.03;;;15.68;100.00
7662;BME280;30314;48.184;11.510;2023-07-28T05:32:10;95369.59;;;15.75;100.00
7662;BME280;30314;48.184;11.510;2023-07-28T05:34:47;95370.06;;;15.90;100.00
7662;BME280;30314;48.184;11.510;2023-07-28T05:37:14;95373.59;;;15.94;100.00
7662;BME280;30314;48.184;11.510;2023-07-28T05:39:41;95367.06;;;15.91;100.00
7662;BME280;30314;48.184;11.510;2023-07-28T05:42:08;95366.09;;;15.96;100.00
7662;BME280;30314;48.184;11.510;2023-07-28T05:44:34;95394.50;;;16.17;100.00
7662;BME280;30314;48.184;11.510;2023-07-28T05:47:01;95382.50;;;16.11;100.00
7662;BME280;30314;48.184;11.510;2023-07-28T05:49:28;95402.81;;;16.28;100.00
7662;BME280;30314;48.184;11.510;2023-07-28T05:51:54;95369.97;;;16.11;100.00
7662;BME280;30314;48.184;11.510;2023-07-28T05:54:21;95398.81;;;16.34;100.00
7662;BME280;30314;48.184;11.510;2023-07-28T05:56:48;95340.78;;;16.02;100.00
7662;BME280;30314;48.184;11.510;2023-07-28T05:59:15;95394.03;;;16.52;100.00
7662;BME280;30314;48.184;11.510;2023-07-28T06:01:42;95380.94;;;16.47;100.00
7662;BME280;30314;48.184;11.510;2023-07-28T06:04:47;95417.09;;;16.85;100.00
7662;BME280;30314;48.184;11.510;2023-07-28T06:07:14;95415.78;;;16.92;100.00
7662;BME280;30314;48.184;11.510;2023-07-28T06:09:41;95425.19;;;17.01;100.00
7662;BME280;30314;48.184;11.510;2023-07-28T06:12:08;95400.41;;;17.01;100.00
7662;BME280;30314;48.184;11.510;2023-07-28T06:14:35;95420.50;;;17.11;100.00
7662;BME280;30314;48.184;11.510;2023-07-28T06:17:04;95424.81;;;17.15;100.00
7662;BME280;30314;48.184;11.510;2023-07-28T06:19:32;95424.31;;;17.26;100.00
7662;BME280;30314;48.184;11.510;2023-07-28T06:21:59;95434.47;;;17.49;100.00
7662;BME280;30314;48.184;11.510;2023-07-28T06:24:27;95416.38;;;17.42;100.00
7662;BME280;30314;48.184;11.510;2023-07-28T06:26:57;95447.34;;;17.59;100.00
7662;BME280;30314;48.184;11.510;2023-07-28T06:29:24;95434.44;;;17.61;100.00
7662;BME280;30314;48.184;11.510;2023-07-28T06:31:50;95432.97;;;17.64;100.00
7662;BME280;30314;48.184;11.510;2023-07-28T06:34:17;95420.53;;;17.55;100.00
7662;BME280;30314;48.184;11.510;2023-07-28T06:36:43;95445.41;;;17.72;100.00
7662;BME280;30314;48.184;11.510;2023-07-28T06:39:10;95438.94;;;17.73;100.00
7662;BME280;30314;48.184;11.510;2023-07-28T06:41:37;95451.47;;;17.85;100.00
7662;BME280;30314;48.184;11.510;2023-07-28T06:44:07;95448.81;;;17.85;100.00
7662;BME280;30314;48.184;11.510;2023-07-28T06:46:35;95435.09;;;17.86;100.00
7662;BME280;30314;48.184;11.510;2023-07-28T06:49:02;95443.81;;;17.99;100.00
7662;BME280;30314;48.184;11.510;2023-07-28T06:51:30;95451.06;;;18.15;100.00
7662;BME280;30314;48.184;11.510;2023-07-28T06:53:56;95429.97;;;18.10;100.00
7662;BME280;30314;48.184;11.510;2023-07-28T06:56:23;95447.47;;;18.23;100.00
7662;BME280;30314;48.184;11.510;2023-07-28T06:58:50;95445.38;;;18.33;100.00
7662;BME280;30314;48.184;11.510;2023-07-28T07:01:34;95451.41;;;18.45;100.00
7662;BME280;30314;48.184;11.510;2023-07-28T07:04:02;95434.44;;;18.38;100.00
7662;BME280;30314;48.184;11.510;2023-07-28T07:06:28;95455.63;;;18.47;100.00
7662;BME280;30314;48.184;11.510;2023-07-28T07:08:55;95464.50;;;18.51;100.00
7662;BME280;30314;48.184;11.510;2023-07-28T07:11:22;95468.03;;;18.55;100.00
7662;BME280;30314;48.184;11.510;2023-07-28T07:13:49;95450.53;;;18.57;100.00
7662;BME280;30314;48.184;11.510;2023-07-28T07:16:16;95449.91;;;18.64;100.00
7662;BME280;30314;48.184;11.510;2023-07-28T07:18:51;95451.53;;;18.69;100.00
7662;BME280;30314;48.184;11.510;2023-07-28T07:21:18;95451.97;;;18.71;100.00
7662;BME280;30314;48.184;11.510;2023-07-28T07:23:44;95433.09;;;18.64;100.00
7662;BME280;30314;48.184;11.510;2023-07-28T07:26:24;95448.09;;;18.84;100.00
7662;BME280;30314;48.184;11.510;2023-07-28T07:28:50;95427.69;;;18.76;100.00
7662;BME280;30314;48.184;11.510;2023-07-28T07:31:17;95457.47;;;18.94;100.00
7662;BME280;30314;48.184;11.510;2023-07-28T07:33:44;95457.78;;;19.09;100.00
7662;BME280;30314;48.184;11.510;2023-07-28T07:36:14;95441.09;;;19.15;100.00
7662;BME280;30314;48.184;11.510;2023-07-28T07:38:41;95448.41;;;19.38;100.00
7662;BME280;30314;48.184;11.510;2023-07-28T07:41:08;95451.66;;;19.48;100.00
7662;BME280;30314;48.184;11.510;2023-07-28T07:43:39;95454.63;;;19.62;100.00
7662;BME280;30314;48.184;11.510;2023-07-28T07:46:05;95432.13;;;19.67;100.00
7662;BME280;30314;48.184;11.510;2023-07-28T07:48:32;95440.50;;;19.65;100.00
7662;BME280;30314;48.184;11.510;2023-07-28T07:50:59;95454.78;;;19.69;100.00
7662;BME280;30314;48.184;11.510;2023-07-28T07:53:25;95467.16;;;19.78;100.00
7662;BME280;30314;48.184;11.510;2023-07-28T07:55:52;95453.66;;;19.70;100.00
7662;BME280;30314;48.184;11.510;2023-07-28T07:58:19;95453.66;;;19.70;100.00
7662;BME280;30314;48.184;11.510;2023-07-28T08:00:48;95467.59;;;19.80;99.78
7662;BME280;30314;48.184;11.510;2023-07-28T08:03:16;95469.19;;;19.84;98.99
7662;BME280;30314;48.184;11.510;2023-07-28T08:05:42;95449.44;;;19.69;99.28
7662;BME280;30314;48.184;11.510;2023-07-28T08:08:09;95462.63;;;20.02;100.00
7662;BME280;30314;48.184;11.510;2023-07-28T08:10:38;95450.72;;;20.22;98.61
7662;BME280;30314;48.184;11.510;2023-07-28T08:13:05;95467.13;;;20.44;94.21
7662;BME280;30314;48.184;11.510;2023-07-28T08:15:32;95473.09;;;20.57;95.23
7662;BME280;30314;48.184;11.510;2023-07-28T08:17:58;95451.34;;;20.62;93.17
7662;BME280;30314;48.184;11.510;2023-07-28T08:20:25;95422.00;;;20.50;92.90
7662;BME280;30314;48.184;11.510;2023-07-28T08:22:52;95460.47;;;20.84;91.87
7662;BME280;30314;48.184;11.510;2023-07-28T08:25:18;95468.16;;;21.13;90.24
7662;BME280;30314;48.184;11.510;2023-07-28T08:27:45;95465.81;;;21.42;85.23
7662;BME280;30314;48.184;11.510;2023-07-28T08:30:13;95460.00;;;21.36;91.59
7662;BME280;30314;48.184;11.510;2023-07-28T08:32:42;95473.13;;;21.42;91.16
7662;BME280;30314;48.184;11.510;2023-07-28T08:35:10;95461.94;;;21.39;88.45
7662;BME280;30314;48.184;11.510;2023-07-28T08:37:36;95463.81;;;21.35;89.62
7662;BME280;30314;48.184;11.510;2023-07-28T08:40:03;95454.81;;;21.20;91.91
7662;BME280;30314;48.184;11.510;2023-07-28T08:42:37;95459.81;;;21.22;89.80
7662;BME280;30314;48.184;11.510;2023-07-28T08:45:05;95476.06;;;21.33;92.63
7662;BME280;30314;48.184;11.510;2023-07-28T08:47:32;95468.31;;;21.28;92.36
7662;BME280;30314;48.184;11.510;2023-07-28T08:49:59;95474.41;;;21.51;91.18
7662;BME280;30314;48.184;11.510;2023-07-28T08:52:25;95468.34;;;21.58;88.06
7662;BME280;30314;48.184;11.510;2023-07-28T08:54:52;95469.13;;;21.62;88.13
7662;BME280;30314;48.184;11.510;2023-07-28T08:57:19;95469.94;;;21.66;88.57
7662;BME280;30314;48.184;11.510;2023-07-28T08:59:46;95472.91;;;21.92;87.49
7662;BME280;30314;48.184;11.510;2023-07-28T09:02:17;95468.97;;;21.82;86.58
7662;BME280;30314;48.184;11.510;2023-07-28T09:04:47;95450.34;;;21.62;88.62
7662;BME280;30314;48.184;11.510;2023-07-28T09:07:14;95467.84;;;21.83;90.38
7662;BME280;30314;48.184;11.510;2023-07-28T09:09:41;95477.41;;;21.80;84.75
7662;BME280;30314;48.184;11.510;2023-07-28T09:12:08;95472.97;;;21.61;87.94
7662;BME280;30314;48.184;11.510;2023-07-28T09:14:36;95468.75;;;21.60;83.56
7662;BME280;30314;48.184;11.510;2023-07-28T09:17:11;95472.22;;;21.64;85.19
7662;BME280;30314;48.184;11.510;2023-07-28T09:19:52;95479.56;;;21.67;87.64
7662;BME280;30314;48.184;11.510;2023-07-28T09:22:19;95494.13;;;21.66;90.28
7662;BME280;30314;48.184;11.510;2023-07-28T09:24:47;95477.25;;;21.66;84.43
7662;BME280;30314;48.184;11.510;2023-07-28T09:29:49;95485.41;;;21.77;81.62
7662;BME280;30314;48.184;11.510;2023-07-28T09:32:26;95478.16;;;21.77;83.59
7662;BME280;30314;48.184;11.510;2023-07-28T09:35:12;95473.22;;;21.83;82.26
7662;BME280;30314;48.184;11.510;2023-07-28T09:37:41;95478.50;;;21.76;86.28
7662;BME280;30314;48.184;11.510;2023-07-28T09:40:09;95482.00;;;21.80;86.67
7662;BME280;30314;48.184;11.510;2023-07-28T09:42:41;95481.69;;;21.85;83.75
7662;BME280;30314;48.184;11.510;2023-07-28T09:45:09;95468.13;;;21.74;81.93
7662;BME280;30314;48.184;11.510;2023-07-28T09:47:50;95471.25;;;21.80;83.37
7662;BME280;30314;48.184;11.510;2023-07-28T09:50:22;95465.16;;;21.83;81.52
7662;BME280;30314;48.184;11.510;2023-07-28T09:52:53;95479.94;;;22.04;80.18
7662;BME280;30314;48.184;11.510;2023-07-28T09:55:20;95463.34;;;21.98;82.08
7662;BME280;30314;48.184;11.510;2023-07-28T09:57:50;95475.91;;;22.24;76.21
7662;BME280;30314;48.184;11.510;2023-07-28T10:00:18;95458.31;;;22.34;82.51
7662;BME280;30314;48.184;11.510;2023-07-28T10:02:46;95462.59;;;22.39;83.98
7662;BME280;30314;48.184;11.510;2023-07-28T10:05:14;95459.63;;;22.51;76.43
7662;BME280;30314;48.184;11.510;2023-07-28T10:07:43;95460.06;;;22.57;77.41
7662;BME280;30314;48.184;11.510;2023-07-28T10:10:14;95460.75;;;22.47;76.33
7662;BME280;30314;48.184;11.510;2023-07-28T10:15:12;95471.94;;;22.52;79.00
7662;BME280;30314;48.184;11.510;2023-07-28T10:23:04;95467.25;;;22.46;76.22
7662;BME280;30314;48.184;11.510;2023-07-28T10:25:33;95455.72;;;22.42;77.02
7662;BME280;30314;48.184;11.510;2023-07-28T10:28:01;95465.22;;;22.35;77.40
7662;BME280;30314;48.184;11.510;2023-07-28T10:30:29;95476.44;;;22.41;78.82
7662;BME280;30314;48.184;11.510;2023-07-28T10:33:00;95466.34;;;22.31;79.17
7662;BME280;30314;48.184;11.510;2023-07-28T10:35:27;95468.28;;;22.30;74.42
7662;BME280;30314;48.184;11.510;2023-07-28T10:37:55;95466.28;;;22.23;82.42
7662;BME280;30314;48.184;11.510;2023-07-28T10:40:28;95474.75;;;22.25;81.14
7662;BME280;30314;48.184;11.510;2023-07-28T10:42:55;95485.53;;;22.25;78.44
7662;BME280;30314;48.184;11.510;2023-07-28T10:45:24;95484.00;;;22.28;79.70
7662;BME280;30314;48.184;11.510;2023-07-28T10:47:52;95486.34;;;22.33;77.85
7662;BME280;30314;48.184;11.510;2023-07-28T10:50:19;95492.13;;;22.35;81.26
7662;BME280;30314;48.184;11.510;2023-07-28T10:52:46;95484.03;;;22.32;84.06
7662;BME280;30314;48.184;11.510;2023-07-28T10:55:18;95474.53;;;22.42;79.52
7662;BME280;30314;48.184;11.510;2023-07-28T10:57:48;95484.59;;;22.48;78.11
7662;BME280;30314;48.184;11.510;2023-07-28T11:00:17;95479.03;;;22.79;77.88
7662;BME280;30314;48.184;11.510;2023-07-28T11:05:21;95501.16;;;23.10;75.67
7662;BME280;30314;48.184;11.510;2023-07-28T11:07:54;95490.41;;;23.14;68.82
7662;BME280;30314;48.184;11.510;2023-07-28T11:10:21;95490.13;;;23.26;72.48
7662;BME280;30314;48.184;11.510;2023-07-28T11:12:49;95489.81;;;23.49;70.05
7662;BME280;30314;48.184;11.510;2023-07-28T11:15:17;95486.34;;;23.42;67.72
7662;BME280;30314;48.184;11.510;2023-07-28T11:17:49;95481.22;;;23.22;72.47
7662;BME280;30314;48.184;11.510;2023-07-28T11:20:21;95493.56;;;23.27;71.98
7662;BME280;30314;48.184;11.510;2023-07-28T11:22:59;95470.72;;;23.06;70.63
7662;BME280;30314;48.184;11.510;2023-07-28T11:25:28;95493.41;;;23.05;73.87
7662;BME280;30314;48.184;11.510;2023-07-28T11:27:56;95484.50;;;22.90;74.78
7662;BME280;30314;48.184;11.510;2023-07-28T11:30:24;95480.63;;;22.87;73.56
7662;BME280;30314;48.184;11.510;2023-07-28T11:32:51;95470.56;;;22.77;73.22
7662;BME280;30314;48.184;11.510;2023-07-28T11:35:20;95482.88;;;22.78;72.07
7662;BME280;30314;48.184;11.510;2023-07-28T11:37:50;95484.00;;;22.73;76.44
7662;BME280;30314;48.184;11.510;2023-07-28T11:40:20;95475.88;;;22.66;74.08
7662;BME280;30314;48.184;11.510;2023-07-28T11:42:50;95476.25;;;22.68;72.29
7662;BME280;30314;48.184;11.510;2023-07-28T11:45:18;95475.81;;;22.59;74.59
7662;BME280;30314;48.184;11.510;2023-07-28T11:47:55;95492.13;;;22.80;70.78
7662;BME280;30314;48.184;11.510;2023-07-28T11:50:30;95461.91;;;22.49;73.97
7662;BME280;30314;48.184;11.510;2023-07-28T11:53:01;95476.22;;;22.61;69.79
7662;BME280;30314;48.184;11.510;2023-07-28T11:55:29;95480.50;;;22.69;68.78
7662;BME280;30314;48.184;11.510;2023-07-28T11:57:55;95484.41;;;22.75;67.15
7662;BME280;30314;48.184;11.510;2023-07-28T12:00:31;95489.06;;;22.86;68.23
7662;BME280;30314;48.184;11.510;2023-07-28T12:03:05;95489.47;;;22.91;69.87
7662;BME280;30314;48.184;11.510;2023-07-28T12:05:33;95475.25;;;22.87;71.23
7662;BME280;30314;48.184;11.510;2023-07-28T12:08:00;95476.53;;;23.08;69.61
7662;BME280;30314;48.184;11.510;2023-07-28T12:10:27;95475.09;;;23.25;68.05
7662;BME280;30314;48.184;11.510;2023-07-28T12:13:03;95473.66;;;23.49;70.87
7662;BME280;30314;48.184;11.510;2023-07-28T12:15:34;95470.19;;;23.53;68.89
7662;BME280;30314;48.184;11.510;2023-07-28T12:18:09;95472.94;;;23.60;72.84
7662;BME280;30314;48.184;11.510;2023-07-28T12:20:44;95476.44;;;23.75;69.57
7662;BME280;30314;48.184;11.510;2023-07-28T12:23:16;95474.13;;;23.77;63.78
7662;BME280;30314;48.184;11.510;2023-07-28T12:25:47;95477.19;;;23.79;64.20
7662;BME280;30314;48.184;11.510;2023-07-28T12:28:14;95467.13;;;23.50;66.55
7662;BME280;30314;48.184;11.510;2023-07-28T12:30:43;95487.50;;;23.48;68.38
7662;BME280;30314;48.184;11.510;2023-07-28T12:33:10;95486.63;;;23.26;69.61
7662;BME280;30314;48.184;11.510;2023-07-28T12:35:40;95477.28;;;23.08;68.09
7662;BME280;30314;48.184;11.510;2023-07-28T12:38:10;95469.09;;;22.90;70.80
7662;BME280;30314;48.184;11.510;2023-07-28T12:40:39;95485.66;;;22.96;70.64
7662;BME280;30314;48.184;11.510;2023-07-28T12:43:09;95474.56;;;23.05;68.59
7662;BME280;30314;48.184;11.510;2023-07-28T12:45:56;95471.25;;;23.22;69.23
7662;BME280;30314;48.184;11.510;2023-07-28T12:48:25;95471.66;;;23.28;67.30
7662;BME280;30314;48.184;11.510;2023-07-28T12:50:52;95469.31;;;23.23;68.56
7662;BME280;30314;48.184;11.510;2023-07-28T12:53:22;95467.72;;;23.15;71.64
7662;BME280;30314;48.184;11.510;2023-07-28T12:55:49;95482.75;;;23.19;69.70
7662;BME280;30314;48.184;11.510;2023-07-28T12:58:19;95478.53;;;23.22;66.41
7662;BME280;30314;48.184;11.510;2023-07-28T13:00:48;95459.97;;;23.09;67.54
7662;BME280;30314;48.184;11.510;2023-07-28T13:03:18;95461.13;;;23.08;68.02
7662;BME280;30314;48.184;11.510;2023-07-28T13:05:45;95462.97;;;22.97;71.58
7662;BME280;30314;48.184;11.510;2023-07-28T13:08:14;95469.97;;;23.05;67.65
7662;BME280;30314;48.184;11.510;2023-07-28T13:10:41;95474.59;;;23.08;69.53
7662;BME280;30314;48.184;11.510;2023-07-28T13:13:10;95467.75;;;23.18;68.86
7662;BME280;30314;48.184;11.510;2023-07-28T13:15:40;95473.44;;;23.09;66.42
7662;BME280;30314;48.184;11.510;2023-07-28T13:18:07;95466.16;;;23.17;67.38
7662;BME280;30314;48.184;11.510;2023-07-28T13:20:34;95471.66;;;23.35;64.43
7662;BME280;30314;48.184;11.510;2023-07-28T13:25:27;95485.41;;;23.16;68.76